sensor_id;sensor_type;location;lat;lon;timestamp;temperature;humidity
53286;DHT22;39171;45.550;12.074;2023-02-22T00:06:02;16.90;62.10
53286;DHT22;39171;45.550;12.074;2023-02-22T00:12:04;16.90;62.20
53286;DHT22;39171;45.550;12.074;2023-02-22T00:18:06;16.80;62.30
53286;DHT22;39171;45.550;12.074;2023-02-22T00:24:10;16.80;62.40
53286;DHT22;39171;45.550;12.074;2023-02-22T00:30:24;16.80;62.40
53286;DHT22;39171;45.550;12.074;2023-02-22T00:36:27;16.80;62.50
53286;DHT22;39171;45.550;12.074;2023-02-22T00:42:30;16.80;62.60
53286;DHT22;39171;45.550;12.074;2023-02-22T00:48:31;16.70;62.70
53286;DHT22;39171;45.550;12.074;2023-02-22T00:54:33;16.70;62.70
53286;DHT22;39171;45.550;12.074;2023-02-22T01:00:35;16.70;62.80
53286;DHT22;39171;45.550;12.074;2023-02-22T01:06:37;16.70;62.90
53286;DHT22;39171;45.550;12.074;2023-02-22T01:12:38;16.70;62.90
53286;DHT22;39171;45.550;12.074;2023-02-22T01:18:40;16.60;62.90
53286;DHT22;39171;45.550;12.074;2023-02-22T01:24:41;16.60;63.00
53286;DHT22;39171;45.550;12.074;2023-02-22T01:30:42;16.60;63.10
53286;DHT22;39171;45.550;12.074;2023-02-22T01:36:44;16.60;63.10
53286;DHT22;39171;45.550;12.074;2023-02-22T01:42:52;16.50;63.20
53286;DHT22;39171;45.550;12.074;2023-02-22T01:48:56;16.50;63.30
53286;DHT22;39171;45.550;12.074;2023-02-22T01:54:59;16.50;63.30
53286;DHT22;39171;45.550;12.074;2023-02-22T02:01:00;16.50;63.40
53286;DHT22;39171;45.550;12.074;2023-02-22T02:07:04;16.50;63.50
53286;DHT22;39171;45.550;12.074;2023-02-22T02:13:06;16.40;63.50
53286;DHT22;39171;45.550;12.074;2023-02-22T02:19:09;16.40;63.50
53286;DHT22;39171;45.550;12.074;2023-02-22T02:31:33;16.40;63.70
53286;DHT22;39171;45.550;12.074;2023-02-22T02:43:50;16.30;63.80
53286;DHT22;39171;45.550;12.074;2023-02-22T02:50:04;16.30;63.90
53286;DHT22;39171;45.550;12.074;2023-02-22T02:56:08;16.30;63.90
53286;DHT22;39171;45.550;12.074;2023-02-22T03:14:27;16.20;64.10
53286;DHT22;39171;45.550;12.074;2023-02-22T03:20:40;16.20;64.20
53286;DHT22;39171;45.550;12.074;2023-02-22T03:26:48;16.20;64.20
53286;DHT22;39171;45.550;12.074;2023-02-22T03:32:55;16.20;64.30
53286;DHT22;39171;45.550;12.074;2023-02-22T03:39:00;16.10;64.30
53286;DHT22;39171;45.550;12.074;2023-02-22T03:45:04;16.10;64.40
53286;DHT22;39171;45.550;12.074;2023-02-22T03:51:11;16.10;64.40
53286;DHT22;39171;45.550;12.074;2023-02-22T03:57:16;16.10;64.50
53286;DHT22;39171;45.550;12.074;2023-02-22T04:03:26;16.10;64.60
53286;DHT22;39171;45.550;12.074;2023-02-22T04:09:27;16.00;64.60
53286;DHT22;39171;45.550;12.074;2023-02-22T04:15:30;16.00;64.60
53286;DHT22;39171;45.550;12.074;2023-02-22T04:21:37;16.00;64.70
53286;DHT22;39171;45.550;12.074;2023-02-22T04:27:40;16.00;64.70
53286;DHT22;39171;45.550;12.074;2023-02-22T04:33:41;16.00;64.80
53286;DHT22;39171;45.550;12.074;2023-02-22T04:39:46;16.00;64.90
53286;DHT22;39171;45.550;12.074;2023-02-22T04:45:47;15.90;64.90
53286;DHT22;39171;45.550;12.074;2023-02-22T04:51:48;15.90;64.90
53286;DHT22;39171;45.550;12.074;2023-02-22T04:57:51;15.80;65.00
53286;DHT22;39171;45.550;12.074;2023-02-22T05:03:52;15.80;65.00
53286;DHT22;39171;45.550;12.074;2023-02-22T05:09:54;15.80;65.00
53286;DHT22;39171;45.550;12.074;2023-02-22T05:15:55;15.80;65.10
53286;DHT22;39171;45.550;12.074;2023-02-22T05:21:56;15.80;65.20
53286;DHT22;39171;45.550;12.074;2023-02-22T05:27:59;15.80;65.20
53286;DHT22;39171;45.550;12.074;2023-02-22T05:34:00;15.70;65.20
53286;DHT22;39171;45.550;12.074;2023-02-22T05:40:02;15.70;65.30
53286;DHT22;39171;45.550;12.074;2023-02-22T05:46:03;15.70;65.30
53286;DHT22;39171;45.550;12.074;2023-02-22T05:52:04;15.70;65.40
53286;DHT22;39171;45.550;12.074;2023-02-22T05:58:05;15.70;65.40
53286;DHT22;39171;45.550;12.074;2023-02-22T06:04:06;15.70;65.40
53286;DHT22;39171;45.550;12.074;2023-02-22T06:10:08;15.70;65.50
53286;DHT22;39171;45.550;12.074;2023-02-22T06:16:10;15.60;65.50
53286;DHT22;39171;45.550;12.074;2023-02-22T06:22:14;15.60;65.70
53286;DHT22;39171;45.550;12.074;2023-02-22T06:28:16;15.70;65.90
53286;DHT22;39171;45.550;12.074;2023-02-22T06:34:17;15.80;65.60
53286;DHT22;39171;45.550;12.074;2023-02-22T06:40:18;16.10;65.00
53286;DHT22;39171;45.550;12.074;2023-02-22T06:46:19;16.30;64.70
53286;DHT22;39171;45.550;12.074;2023-02-22T06:52:22;16.60;64.10
53286;DHT22;39171;45.550;12.074;2023-02-22T06:58:23;16.90;63.80
53286;DHT22;39171;45.550;12.074;2023-02-22T07:04:24;17.10;63.40
53286;DHT22;39171;45.550;12.074;2023-02-22T07:10:27;17.20;63.30
53286;DHT22;39171;45.550;12.074;2023-02-22T07:16:28;17.40;62.90
53286;DHT22;39171;45.550;12.074;2023-02-22T07:22:29;17.50;62.50
53286;DHT22;39171;45.550;12.074;2023-02-22T07:28:31;17.60;62.20
53286;DHT22;39171;45.550;12.074;2023-02-22T07:34:32;17.70;62.00
53286;DHT22;39171;45.550;12.074;2023-02-22T07:40:35;17.80;61.90
53286;DHT22;39171;45.550;12.074;2023-02-22T07:46:37;17.90;61.60
53286;DHT22;39171;45.550;12.074;2023-02-22T07:52:38;17.90;61.30
53286;DHT22;39171;45.550;12.074;2023-02-22T07:58:39;18.00;61.10
53286;DHT22;39171;45.550;12.074;2023-02-22T08:04:41;18.10;60.70
53286;DHT22;39171;45.550;12.074;2023-02-22T08:10:42;18.10;60.60
53286;DHT22;39171;45.550;12.074;2023-02-22T08:16:44;18.20;60.30
53286;DHT22;39171;45.550;12.074;2023-02-22T08:22:45;18.20;60.20
53286;DHT22;39171;45.550;12.074;2023-02-22T08:28:47;18.30;60.00
53286;DHT22;39171;45.550;12.074;2023-02-22T08:34:51;18.30;59.80
53286;DHT22;39171;45.550;12.074;2023-02-22T08:40:52;18.40;59.70
53286;DHT22;39171;45.550;12.074;2023-02-22T08:46:53;18.50;59.50
53286;DHT22;39171;45.550;12.074;2023-02-22T08:52:56;18.50;59.50
53286;DHT22;39171;45.550;12.074;2023-02-22T08:58:58;18.60;59.30
53286;DHT22;39171;45.550;12.074;2023-02-22T09:04:59;18.60;59.10
53286;DHT22;39171;45.550;12.074;2023-02-22T09:11:01;18.50;59.10
53286;DHT22;39171;45.550;12.074;2023-02-22T09:17:05;18.40;59.20
53286;DHT22;39171;45.550;12.074;2023-02-22T09:23:07;18.40;59.00
53286;DHT22;39171;45.550;12.074;2023-02-22T09:29:09;18.30;59.10
53286;DHT22;39171;45.550;12.074;2023-02-22T09:35:10;18.30;59.20
53286;DHT22;39171;45.550;12.074;2023-02-22T09:41:15;18.20;59.20
53286;DHT22;39171;45.550;12.074;2023-02-22T09:47:23;18.20;59.20
53286;DHT22;39171;45.550;12.074;2023-02-22T09:53:34;18.20;59.30
53286;DHT22;39171;45.550;12.074;2023-02-22T09:59:41;18.10;59.40
53286;DHT22;39171;45.550;12.074;2023-02-22T10:05:46;18.10;59.10
53286;DHT22;39171;45.550;12.074;2023-02-22T10:11:59;18.00;59.40
53286;DHT22;39171;45.550;12.074;2023-02-22T10:24:31;17.90;59.60
53286;DHT22;39171;45.550;12.074;2023-02-22T10:30:39;18.00;59.50
53286;DHT22;39171;45.550;12.074;2023-02-22T10:36:45;17.90;59.70
53286;DHT22;39171;45.550;12.074;2023-02-22T10:42:48;17.80;59.30
53286;DHT22;39171;45.550;12.074;2023-02-22T10:48:54;17.80;59.70
53286;DHT22;39171;45.550;12.074;2023-02-22T10:54:57;17.70;59.40
53286;DHT22;39171;45.550;12.074;2023-02-22T11:00:58;17.80;59.10
53286;DHT22;39171;45.550;12.074;2023-02-22T11:13:01;18.20;58.40
53286;DHT22;39171;45.550;12.074;2023-02-22T11:25:25;18.40;57.90
53286;DHT22;39171;45.550;12.074;2023-02-22T11:31:27;18.50;58.10
53286;DHT22;39171;45.550;12.074;2023-02-22T11:37:33;18.70;57.80
53286;DHT22;39171;45.550;12.074;2023-02-22T11:43:36;18.80;57.50
53286;DHT22;39171;45.550;12.074;2023-02-22T11:49:38;18.80;57.40
53286;DHT22;39171;45.550;12.074;2023-02-22T11:55:47;18.80;57.60
53286;DHT22;39171;45.550;12.074;2023-02-22T12:20:38;18.80;57.40
53286;DHT22;39171;45.550;12.074;2023-02-22T12:26:41;18.70;57.00
53286;DHT22;39171;45.550;12.074;2023-02-22T12:32:43;18.80;56.70
53286;DHT22;39171;45.550;12.074;2023-02-22T12:38:50;18.70;56.50
53286;DHT22;39171;45.550;12.074;2023-02-22T12:44:53;18.70;56.80
53286;DHT22;39171;45.550;12.074;2023-02-22T12:51:01;18.70;56.90
53286;DHT22;39171;45.550;12.074;2023-02-22T12:57:08;18.70;56.60
53286;DHT22;39171;45.550;12.074;2023-02-22T13:21:54;18.60;56.20
53286;DHT22;39171;45.550;12.074;2023-02-22T13:52:39;18.50;56.60
53286;DHT22;39171;45.550;12.074;2023-02-22T14:05:33;18.70;56.10
53286;DHT22;39171;45.550;12.074;2023-02-22T14:17:36;18.90;56.20
53286;DHT22;39171;45.550;12.074;2023-02-22T14:23:50;19.00;56.10
53286;DHT22;39171;45.550;12.074;2023-02-22T14:29:55;19.20;55.30
53286;DHT22;39171;45.550;12.074;2023-02-22T14:35:57;19.30;55.20
53286;DHT22;39171;45.550;12.074;2023-02-22T14:42:01;19.40;55.30
53286;DHT22;39171;45.550;12.074;2023-02-22T14:48:26;19.50;55.40
53286;DHT22;39171;45.550;12.074;2023-02-22T14:54:34;19.70;55.30
53286;DHT22;39171;45.550;12.074;2023-02-22T15:00:43;19.70;55.40
53286;DHT22;39171;45.550;12.074;2023-02-22T15:06:46;19.70;55.20
53286;DHT22;39171;45.550;12.074;2023-02-22T15:12:55;19.70;55.60
53286;DHT22;39171;45.550;12.074;2023-02-22T15:19:09;19.60;55.10
53286;DHT22;39171;45.550;12.074;2023-02-22T15:25:11;19.50;55.70
53286;DHT22;39171;45.550;12.074;2023-02-22T15:31:32;19.50;55.50
53286;DHT22;39171;45.550;12.074;2023-02-22T15:37:34;19.40;55.60
53286;DHT22;39171;45.550;12.074;2023-02-22T15:43:35;19.30;56.00
53286;DHT22;39171;45.550;12.074;2023-02-22T15:49:38;19.20;56.00
53286;DHT22;39171;45.550;12.074;2023-02-22T15:55:40;19.20;56.30
53286;DHT22;39171;45.550;12.074;2023-02-22T16:01:49;19.10;56.40
53286;DHT22;39171;45.550;12.074;2023-02-22T16:07:50;19.10;56.60
53286;DHT22;39171;45.550;12.074;2023-02-22T16:20:56;19.00;57.30
53286;DHT22;39171;45.550;12.074;2023-02-22T16:27:13;18.90;57.50
53286;DHT22;39171;45.550;12.074;2023-02-22T16:33:15;18.90;57.40
53286;DHT22;39171;45.550;12.074;2023-02-22T16:39:29;18.80;57.50
53286;DHT22;39171;45.550;12.074;2023-02-22T16:45:31;18.70;57.90
53286;DHT22;39171;45.550;12.074;2023-02-22T16:51:40;18.70;58.00
53286;DHT22;39171;45.550;12.074;2023-02-22T16:57:43;18.70;58.00
53286;DHT22;39171;45.550;12.074;2023-02-22T17:03:44;18.70;58.00
53286;DHT22;39171;45.550;12.074;2023-02-22T17:09:45;18.70;58.50
53286;DHT22;39171;45.550;12.074;2023-02-22T17:15:46;18.60;58.50
53286;DHT22;39171;45.550;12.074;2023-02-22T17:21:48;18.50;58.60
53286;DHT22;39171;45.550;12.074;2023-02-22T17:27:49;18.50;58.90
53286;DHT22;39171;45.550;12.074;2023-02-22T17:33:51;18.40;58.90
53286;DHT22;39171;45.550;12.074;2023-02-22T17:39:55;18.40;59.00
53286;DHT22;39171;45.550;12.074;2023-02-22T17:45:56;18.30;59.20
53286;DHT22;39171;45.550;12.074;2023-02-22T17:51:57;18.30;59.20
53286;DHT22;39171;45.550;12.074;2023-02-22T17:57:59;18.20;59.30
53286;DHT22;39171;45.550;12.074;2023-02-22T18:04:01;18.20;59.40
53286;DHT22;39171;45.550;12.074;2023-02-22T18:10:03;18.20;59.60
53286;DHT22;39171;45.550;12.074;2023-02-22T18:16:05;18.10;59.70
53286;DHT22;39171;45.550;12.074;2023-02-22T18:22:06;18.00;59.70
53286;DHT22;39171;45.550;12.074;2023-02-22T18:28:08;18.00;59.90
53286;DHT22;39171;45.550;12.074;2023-02-22T18:34:12;18.00;60.00
53286;DHT22;39171;45.550;12.074;2023-02-22T18:40:15;17.90;60.00
53286;DHT22;39171;45.550;12.074;2023-02-22T18:46:19;17.90;60.20
53286;DHT22;39171;45.550;12.074;2023-02-22T18:52:21;17.90;60.20
53286;DHT22;39171;45.550;12.074;2023-02-22T18:58:22;17.80;60.30
53286;DHT22;39171;45.550;12.074;2023-02-22T19:04:24;17.80;60.40
53286;DHT22;39171;45.550;12.074;2023-02-22T19:10:25;17.80;60.50
53286;DHT22;39171;45.550;12.074;2023-02-22T19:16:27;17.80;60.60
53286;DHT22;39171;45.550;12.074;2023-02-22T19:22:28;17.80;60.80
53286;DHT22;39171;45.550;12.074;2023-02-22T19:28:32;17.70;60.80
53286;DHT22;39171;45.550;12.074;2023-02-22T19:34:34;17.70;60.90
53286;DHT22;39171;45.550;12.074;2023-02-22T19:40:36;17.70;60.90
53286;DHT22;39171;45.550;12.074;2023-02-22T19:46:38;17.70;61.00
53286;DHT22;39171;45.550;12.074;2023-02-22T19:52:39;17.70;61.20
53286;DHT22;39171;45.550;12.074;2023-02-22T19:58:41;17.60;61.30
53286;DHT22;39171;45.550;12.074;2023-02-22T20:04:42;17.70;61.30
53286;DHT22;39171;45.550;12.074;2023-02-22T20:10:44;17.60;61.40
53286;DHT22;39171;45.550;12.074;2023-02-22T20:16:46;17.60;61.50
53286;DHT22;39171;45.550;12.074;2023-02-22T20:22:47;17.50;61.60
53286;DHT22;39171;45.550;12.074;2023-02-22T20:28:49;17.50;61.60
53286;DHT22;39171;45.550;12.074;2023-02-22T20:34:51;17.50;61.60
53286;DHT22;39171;45.550;12.074;2023-02-22T20:40:52;17.50;61.70
53286;DHT22;39171;45.550;12.074;2023-02-22T20:46:53;17.40;61.80
53286;DHT22;39171;45.550;12.074;2023-02-22T20:52:54;17.40;61.80
53286;DHT22;39171;45.550;12.074;2023-02-22T20:58:56;17.40;61.90
53286;DHT22;39171;45.550;12.074;2023-02-22T21:04:57;17.40;62.00
53286;DHT22;39171;45.550;12.074;2023-02-22T21:10:59;17.30;62.00
53286;DHT22;39171;45.550;12.074;2023-02-22T21:17:00;17.30;62.10
53286;DHT22;39171;45.550;12.074;2023-02-22T21:23:04;17.30;62.20
53286;DHT22;39171;45.550;12.074;2023-02-22T21:29:05;17.30;62.30
53286;DHT22;39171;45.550;12.074;2023-02-22T21:35:06;17.30;62.30
53286;DHT22;39171;45.550;12.074;2023-02-22T21:41:11;17.30;62.40
53286;DHT22;39171;45.550;12.074;2023-02-22T21:47:12;17.20;62.50
53286;DHT22;39171;45.550;12.074;2023-02-22T21:53:13;17.20;62.60
53286;DHT22;39171;45.550;12.074;2023-02-22T21:59:16;17.20;62.70
53286;DHT22;39171;45.550;12.074;2023-02-22T22:05:18;17.20;62.80
53286;DHT22;39171;45.550;12.074;2023-02-22T22:11:27;17.20;62.80
53286;DHT22;39171;45.550;12.074;2023-02-22T22:17:30;17.20;62.90
53286;DHT22;39171;45.550;12.074;2023-02-22T22:23:31;17.10;62.90
53286;DHT22;39171;45.550;12.074;2023-02-22T22:29:33;17.10;63.00
53286;DHT22;39171;45.550;12.074;2023-02-22T22:35:34;17.10;63.00
53286;DHT22;39171;45.550;12.074;2023-02-22T22:41:41;17.10;63.00
53286;DHT22;39171;45.550;12.074;2023-02-22T22:47:44;17.00;63.10
53286;DHT22;39171;45.550;12.074;2023-02-22T22:53:47;17.00;63.20
53286;DHT22;39171;45.550;12.074;2023-02-22T22:59:48;17.00;63.20
53286;DHT22;39171;45.550;12.074;2023-02-22T23:05:49;17.00;63.20
53286;DHT22;39171;45.550;12.074;2023-02-22T23:11:52;16.90;63.40
53286;DHT22;39171;45.550;12.074;2023-02-22T23:17:54;16.90;63.50
53286;DHT22;39171;45.550;12.074;2023-02-22T23:23:56;16.90;63.60
53286;DHT22;39171;45.550;12.074;2023-02-22T23:29:58;16.90;63.80
53286;DHT22;39171;45.550;12.074;2023-02-22T23:35:59;16.90;63.70
53286;DHT22;39171;45.550;12.074;2023-02-22T23:42:00;16.90;63.70
53286;DHT22;39171;45.550;12.074;2023-02-22T23:48:03;16.80;63.80
53286;DHT22;39171;45.550;12.074;2023-02-22T23:54:05;16.80;64.00
